sensor_id;sensor_type;location;lat;lon;timestamp;P1;durP1;ratioP1;P2;durP2;ratioP2
22634;SDS011;11484;50.858;4.384;2022-08-05T00:01:12;6.90;;;4.05;;
22634;SDS011;11484;50.858;4.384;2022-08-05T00:03:44;7.82;;;3.55;;
22634;SDS011;11484;50.858;4.384;2022-08-05T00:06:11;6.18;;;3.70;;
22634;SDS011;11484;50.858;4.384;2022-08-05T00:08:36;8.38;;;3.70;;
22634;SDS011;11484;50.858;4.384;2022-08-05T00:11:06;7.47;;;3.42;;
22634;SDS011;11484;50.858;4.384;2022-08-05T00:13:34;7.28;;;3.80;;
22634;SDS011;11484;50.858;4.384;2022-08-05T00:16:03;5.53;;;2.83;;
22634;SDS011;11484;50.858;4.384;2022-08-05T00:18:32;8.55;;;2.70;;
22634;SDS011;11484;50.858;4.384;2022-08-05T00:20:57;5.50;;;2.53;;
22634;SDS011;11484;50.858;4.384;2022-08-05T00:23:24;8.43;;;3.58;;
22634;SDS011;11484;50.858;4.384;2022-08-05T00:25:51;6.50;;;2.92;;
22634;SDS011;11484;50.858;4.384;2022-08-05T00:28:17;10.15;;;3.20;;
22634;SDS011;11484;50.858;4.384;2022-08-05T00:30:42;5.25;;;3.33;;
22634;SDS011;11484;50.858;4.384;2022-08-05T00:33:08;6.93;;;3.08;;
22634;SDS011;11484;50.858;4.384;2022-08-05T00:35:34;5.05;;;3.50;;
22634;SDS011;11484;50.858;4.384;2022-08-05T00:38:00;7.70;;;3.08;;
22634;SDS011;11484;50.858;4.384;2022-08-05T00:40:27;10.18;;;3.38;;
22634;SDS011;11484;50.858;4.384;2022-08-05T00:42:53;6.38;;;3.08;;
22634;SDS011;11484;50.858;4.384;2022-08-05T00:45:19;6.88;;;3.20;;
22634;SDS011;11484;50.858;4.384;2022-08-05T00:47:45;5.05;;;3.40;;
22634;SDS011;11484;50.858;4.384;2022-08-05T00:50:11;5.10;;;3.20;;
22634;SDS011;11484;50.858;4.384;2022-08-05T00:52:36;5.75;;;3.38;;
22634;SDS011;11484;50.858;4.384;2022-08-05T00:55:02;4.95;;;3.22;;
22634;SDS011;11484;50.858;4.384;2022-08-05T00:57:28;6.50;;;3.50;;
22634;SDS011;11484;50.858;4.384;2022-08-05T00:59:54;6.85;;;3.10;;
22634;SDS011;11484;50.858;4.384;2022-08-05T01:02:20;5.78;;;3.60;;
22634;SDS011;11484;50.858;4.384;2022-08-05T01:04:46;8.02;;;3.63;;
22634;SDS011;11484;50.858;4.384;2022-08-05T01:07:11;4.88;;;3.08;;
22634;SDS011;11484;50.858;4.384;2022-08-05T01:09:37;8.30;;;3.05;;
22634;SDS011;11484;50.858;4.384;2022-08-05T01:12:05;5.57;;;3.40;;
22634;SDS011;11484;50.858;4.384;2022-08-05T01:14:40;5.47;;;3.33;;
22634;SDS011;11484;50.858;4.384;2022-08-05T01:17:13;6.05;;;3.83;;
22634;SDS011;11484;50.858;4.384;2022-08-05T01:19:53;7.63;;;4.45;;
22634;SDS011;11484;50.858;4.384;2022-08-05T01:28:57;7.53;;;4.05;;
22634;SDS011;11484;50.858;4.384;2022-08-05T01:34:12;8.27;;;4.20;;
22634;SDS011;11484;50.858;4.384;2022-08-05T01:39:20;9.30;;;3.42;;
22634;SDS011;11484;50.858;4.384;2022-08-05T01:41:47;8.25;;;3.78;;
22634;SDS011;11484;50.858;4.384;2022-08-05T01:44:14;7.18;;;3.40;;
22634;SDS011;11484;50.858;4.384;2022-08-05T01:46:43;8.45;;;3.50;;
22634;SDS011;11484;50.858;4.384;2022-08-05T01:49:10;9.35;;;4.00;;
22634;SDS011;11484;50.858;4.384;2022-08-05T01:51:39;6.70;;;3.40;;
22634;SDS011;11484;50.858;4.384;2022-08-05T01:54:06;7.35;;;3.83;;
22634;SDS011;11484;50.858;4.384;2022-08-05T01:56:36;7.50;;;3.45;;
22634;SDS011;11484;50.858;4.384;2022-08-05T01:59:07;8.02;;;3.50;;
22634;SDS011;11484;50.858;4.384;2022-08-05T02:01:37;6.38;;;3.80;;
22634;SDS011;11484;50.858;4.384;2022-08-05T02:04:04;6.30;;;3.60;;
22634;SDS011;11484;50.858;4.384;2022-08-05T02:06:32;8.43;;;3.60;;
22634;SDS011;11484;50.858;4.384;2022-08-05T02:08:58;8.27;;;3.08;;
22634;SDS011;11484;50.858;4.384;2022-08-05T02:11:25;6.28;;;3.70;;
22634;SDS011;11484;50.858;4.384;2022-08-05T02:14:08;7.95;;;3.20;;
22634;SDS011;11484;50.858;4.384;2022-08-05T02:16:46;8.32;;;3.65;;
22634;SDS011;11484;50.858;4.384;2022-08-05T02:19:23;7.10;;;3.72;;
22634;SDS011;11484;50.858;4.384;2022-08-05T02:22:27;8.15;;;3.47;;
22634;SDS011;11484;50.858;4.384;2022-08-05T02:25:16;7.10;;;3.60;;
22634;SDS011;11484;50.858;4.384;2022-08-05T02:27:47;8.73;;;4.22;;
22634;SDS011;11484;50.858;4.384;2022-08-05T02:30:17;7.72;;;4.18;;
22634;SDS011;11484;50.858;4.384;2022-08-05T02:35:12;10.65;;;3.80;;
22634;SDS011;11484;50.858;4.384;2022-08-05T02:37:42;11.50;;;4.25;;
22634;SDS011;11484;50.858;4.384;2022-08-05T02:40:10;7.95;;;4.20;;
22634;SDS011;11484;50.858;4.384;2022-08-05T02:42:39;8.63;;;4.00;;
22634;SDS011;11484;50.858;4.384;2022-08-05T02:45:08;9.30;;;3.85;;
22634;SDS011;11484;50.858;4.384;2022-08-05T02:47:36;11.27;;;4.45;;
22634;SDS011;11484;50.858;4.384;2022-08-05T02:50:03;8.20;;;4.70;;
22634;SDS011;11484;50.858;4.384;2022-08-05T02:52:32;11.95;;;4.53;;
22634;SDS011;11484;50.858;4.384;2022-08-05T02:54:58;9.30;;;4.60;;
22634;SDS011;11484;50.858;4.384;2022-08-05T02:57:28;8.20;;;4.30;;
22634;SDS011;11484;50.858;4.384;2022-08-05T02:59:55;8.35;;;4.65;;
22634;SDS011;11484;50.858;4.384;2022-08-05T03:02:22;11.70;;;4.47;;
22634;SDS011;11484;50.858;4.384;2022-08-05T03:04:53;9.40;;;4.90;;
22634;SDS011;11484;50.858;4.384;2022-08-05T03:07:21;9.32;;;4.80;;
22634;SDS011;11484;50.858;4.384;2022-08-05T03:09:48;8.35;;;5.07;;
22634;SDS011;11484;50.858;4.384;2022-08-05T03:12:30;9.65;;;4.90;;
22634;SDS011;11484;50.858;4.384;2022-08-05T03:14:58;11.38;;;5.07;;
22634;SDS011;11484;50.858;4.384;2022-08-05T03:17:25;10.80;;;5.47;;
22634;SDS011;11484;50.858;4.384;2022-08-05T03:19:53;6.32;;;4.47;;
22634;SDS011;11484;50.858;4.384;2022-08-05T03:22:20;10.80;;;4.80;;
22634;SDS011;11484;50.858;4.384;2022-08-05T03:24:46;10.63;;;5.25;;
22634;SDS011;11484;50.858;4.384;2022-08-05T03:27:13;11.82;;;4.90;;
22634;SDS011;11484;50.858;4.384;2022-08-05T03:29:41;9.02;;;4.88;;
22634;SDS011;11484;50.858;4.384;2022-08-05T03:32:08;9.45;;;5.10;;
22634;SDS011;11484;50.858;4.384;2022-08-05T03:34:35;9.18;;;5.00;;
22634;SDS011;11484;50.858;4.384;2022-08-05T03:37:01;9.93;;;5.07;;
22634;SDS011;11484;50.858;4.384;2022-08-05T03:39:28;8.98;;;4.65;;
22634;SDS011;11484;50.858;4.384;2022-08-05T03:41:54;11.38;;;5.05;;
22634;SDS011;11484;50.858;4.384;2022-08-05T03:44:20;8.40;;;4.72;;
22634;SDS011;11484;50.858;4.384;2022-08-05T03:46:46;13.20;;;5.22;;
22634;SDS011;11484;50.858;4.384;2022-08-05T03:49:12;8.82;;;5.05;;
22634;SDS011;11484;50.858;4.384;2022-08-05T03:51:39;9.40;;;5.28;;
22634;SDS011;11484;50.858;4.384;2022-08-05T03:56:58;11.38;;;5.53;;
22634;SDS011;11484;50.858;4.384;2022-08-05T03:59:30;9.70;;;5.40;;
22634;SDS011;11484;50.858;4.384;2022-08-05T04:02:01;8.52;;;5.25;;
22634;SDS011;11484;50.858;4.384;2022-08-05T04:04:28;9.73;;;5.47;;
22634;SDS011;11484;50.858;4.384;2022-08-05T04:06:56;9.13;;;5.15;;
22634;SDS011;11484;50.858;4.384;2022-08-05T04:09:24;12.65;;;5.65;;
22634;SDS011;11484;50.858;4.384;2022-08-05T04:11:51;12.20;;;5.97;;
22634;SDS011;11484;50.858;4.384;2022-08-05T04:14:17;9.95;;;5.70;;
22634;SDS011;11484;50.858;4.384;2022-08-05T04:16:43;10.32;;;5.53;;
22634;SDS011;11484;50.858;4.384;2022-08-05T04:19:12;10.15;;;6.13;;
22634;SDS011;11484;50.858;4.384;2022-08-05T04:21:39;14.45;;;5.95;;
22634;SDS011;11484;50.858;4.384;2022-08-05T04:24:05;13.70;;;6.03;;
22634;SDS011;11484;50.858;4.384;2022-08-05T04:26:32;10.82;;;5.72;;
22634;SDS011;11484;50.858;4.384;2022-08-05T04:28:58;13.18;;;5.88;;
22634;SDS011;11484;50.858;4.384;2022-08-05T04:31:24;13.80;;;6.32;;
22634;SDS011;11484;50.858;4.384;2022-08-05T04:33:50;11.65;;;5.82;;
22634;SDS011;11484;50.858;4.384;2022-08-05T04:36:15;9.63;;;5.82;;
22634;SDS011;11484;50.858;4.384;2022-08-05T04:38:42;10.85;;;6.00;;
22634;SDS011;11484;50.858;4.384;2022-08-05T04:41:08;10.10;;;5.68;;
22634;SDS011;11484;50.858;4.384;2022-08-05T04:43:33;9.80;;;5.40;;
22634;SDS011;11484;50.858;4.384;2022-08-05T04:46:00;11.60;;;5.53;;
22634;SDS011;11484;50.858;4.384;2022-08-05T04:50:55;12.13;;;5.60;;
22634;SDS011;11484;50.858;4.384;2022-08-05T04:53:21;11.70;;;5.95;;
22634;SDS011;11484;50.858;4.384;2022-08-05T04:55:47;11.98;;;5.68;;
22634;SDS011;11484;50.858;4.384;2022-08-05T04:58:14;11.88;;;6.30;;
22634;SDS011;11484;50.858;4.384;2022-08-05T05:00:41;10.05;;;5.55;;
22634;SDS011;11484;50.858;4.384;2022-08-05T05:03:07;11.30;;;5.30;;
22634;SDS011;11484;50.858;4.384;2022-08-05T05:05:34;12.18;;;5.45;;
22634;SDS011;11484;50.858;4.384;2022-08-05T05:08:04;10.82;;;5.65;;
22634;SDS011;11484;50.858;4.384;2022-08-05T05:13:01;10.43;;;5.83;;
22634;SDS011;11484;50.858;4.384;2022-08-05T05:15:27;11.65;;;5.93;;
22634;SDS011;11484;50.858;4.384;2022-08-05T05:17:54;9.95;;;5.15;;
22634;SDS011;11484;50.858;4.384;2022-08-05T05:20:19;11.85;;;5.63;;
22634;SDS011;11484;50.858;4.384;2022-08-05T05:22:46;13.05;;;5.80;;
22634;SDS011;11484;50.858;4.384;2022-08-05T05:25:13;13.15;;;6.45;;
22634;SDS011;11484;50.858;4.384;2022-08-05T05:27:39;9.23;;;5.82;;
22634;SDS011;11484;50.858;4.384;2022-08-05T05:30:05;9.30;;;5.55;;
22634;SDS011;11484;50.858;4.384;2022-08-05T05:32:31;12.30;;;5.50;;
22634;SDS011;11484;50.858;4.384;2022-08-05T05:34:57;10.40;;;5.28;;
22634;SDS011;11484;50.858;4.384;2022-08-05T05:37:23;11.73;;;5.80;;
22634;SDS011;11484;50.858;4.384;2022-08-05T05:39:48;12.82;;;5.50;;
22634;SDS011;11484;50.858;4.384;2022-08-05T05:42:14;10.98;;;5.53;;
22634;SDS011;11484;50.858;4.384;2022-08-05T05:44:40;12.35;;;5.22;;
22634;SDS011;11484;50.858;4.384;2022-08-05T05:47:06;11.20;;;5.35;;
22634;SDS011;11484;50.858;4.384;2022-08-05T05:49:31;10.55;;;5.13;;
22634;SDS011;11484;50.858;4.384;2022-08-05T05:51:57;13.40;;;5.63;;
22634;SDS011;11484;50.858;4.384;2022-08-05T05:54:23;9.48;;;4.80;;
22634;SDS011;11484;50.858;4.384;2022-08-05T05:56:49;9.30;;;5.32;;
22634;SDS011;11484;50.858;4.384;2022-08-05T05:59:14;18.92;;;10.50;;
22634;SDS011;11484;50.858;4.384;2022-08-05T06:01:40;13.50;;;8.50;;
22634;SDS011;11484;50.858;4.384;2022-08-05T06:04:10;11.38;;;5.72;;
22634;SDS011;11484;50.858;4.384;2022-08-05T06:06:37;13.60;;;5.35;;
22634;SDS011;11484;50.858;4.384;2022-08-05T06:09:08;12.57;;;5.88;;
22634;SDS011;11484;50.858;4.384;2022-08-05T06:11:34;11.07;;;6.05;;
22634;SDS011;11484;50.858;4.384;2022-08-05T06:13:59;10.75;;;5.78;;
22634;SDS011;11484;50.858;4.384;2022-08-05T06:16:26;8.07;;;5.28;;
22634;SDS011;11484;50.858;4.384;2022-08-05T06:18:52;13.15;;;5.60;;
22634;SDS011;11484;50.858;4.384;2022-08-05T06:21:17;10.68;;;5.55;;
22634;SDS011;11484;50.858;4.384;2022-08-05T06:23:43;9.85;;;5.45;;
22634;SDS011;11484;50.858;4.384;2022-08-05T06:26:09;8.93;;;5.75;;
22634;SDS011;11484;50.858;4.384;2022-08-05T06:28:35;11.65;;;5.28;;
22634;SDS011;11484;50.858;4.384;2022-08-05T06:31:01;13.50;;;5.45;;
22634;SDS011;11484;50.858;4.384;2022-08-05T06:33:27;11.35;;;5.55;;
22634;SDS011;11484;50.858;4.384;2022-08-05T06:35:54;10.30;;;5.88;;
22634;SDS011;11484;50.858;4.384;2022-08-05T06:38:20;11.13;;;5.25;;
22634;SDS011;11484;50.858;4.384;2022-08-05T06:40:45;9.75;;;5.50;;
22634;SDS011;11484;50.858;4.384;2022-08-05T06:43:12;7.95;;;5.20;;
22634;SDS011;11484;50.858;4.384;2022-08-05T06:45:38;9.00;;;5.38;;
22634;SDS011;11484;50.858;4.384;2022-08-05T06:48:03;9.95;;;5.10;;
22634;SDS011;11484;50.858;4.384;2022-08-05T06:50:29;10.95;;;5.57;;
22634;SDS011;11484;50.858;4.384;2022-08-05T06:52:55;11.95;;;7.40;;
22634;SDS011;11484;50.858;4.384;2022-08-05T06:55:21;10.95;;;5.80;;
22634;SDS011;11484;50.858;4.384;2022-08-05T06:57:47;10.60;;;5.68;;
22634;SDS011;11484;50.858;4.384;2022-08-05T07:00:12;15.80;;;6.03;;
22634;SDS011;11484;50.858;4.384;2022-08-05T07:02:45;12.38;;;5.90;;
22634;SDS011;11484;50.858;4.384;2022-08-05T07:05:11;8.00;;;4.90;;
22634;SDS011;11484;50.858;4.384;2022-08-05T07:07:38;13.05;;;5.18;;
22634;SDS011;11484;50.858;4.384;2022-08-05T07:10:05;9.40;;;4.95;;
22634;SDS011;11484;50.858;4.384;2022-08-05T07:12:31;10.93;;;5.63;;
22634;SDS011;11484;50.858;4.384;2022-08-05T07:15:15;10.10;;;4.40;;
22634;SDS011;11484;50.858;4.384;2022-08-05T07:18:01;9.98;;;4.78;;
22634;SDS011;11484;50.858;4.384;2022-08-05T07:20:27;8.63;;;4.70;;
22634;SDS011;11484;50.858;4.384;2022-08-05T07:22:52;9.45;;;5.00;;
22634;SDS011;11484;50.858;4.384;2022-08-05T07:25:19;8.75;;;4.68;;
22634;SDS011;11484;50.858;4.384;2022-08-05T07:27:53;10.25;;;4.90;;
22634;SDS011;11484;50.858;4.384;2022-08-05T07:30:20;10.13;;;4.60;;
22634;SDS011;11484;50.858;4.384;2022-08-05T07:32:46;8.65;;;4.85;;
22634;SDS011;11484;50.858;4.384;2022-08-05T07:35:12;10.60;;;5.35;;
22634;SDS011;11484;50.858;4.384;2022-08-05T07:37:38;9.93;;;5.18;;
22634;SDS011;11484;50.858;4.384;2022-08-05T07:40:05;7.60;;;4.70;;
22634;SDS011;11484;50.858;4.384;2022-08-05T07:42:32;9.05;;;5.10;;
22634;SDS011;11484;50.858;4.384;2022-08-05T07:44:59;8.82;;;5.07;;
22634;SDS011;11484;50.858;4.384;2022-08-05T07:47:25;9.98;;;4.85;;
22634;SDS011;11484;50.858;4.384;2022-08-05T07:49:50;9.73;;;4.70;;
22634;SDS011;11484;50.858;4.384;2022-08-05T07:52:17;9.23;;;4.72;;
22634;SDS011;11484;50.858;4.384;2022-08-05T07:54:43;10.00;;;5.18;;
22634;SDS011;11484;50.858;4.384;2022-08-05T07:57:09;10.38;;;4.43;;
22634;SDS011;11484;50.858;4.384;2022-08-05T07:59:35;8.63;;;5.15;;
22634;SDS011;11484;50.858;4.384;2022-08-05T08:02:00;11.85;;;4.95;;
22634;SDS011;11484;50.858;4.384;2022-08-05T08:04:26;9.80;;;4.80;;
22634;SDS011;11484;50.858;4.384;2022-08-05T08:06:52;6.57;;;4.32;;
22634;SDS011;11484;50.858;4.384;2022-08-05T08:09:19;9.57;;;4.32;;
22634;SDS011;11484;50.858;4.384;2022-08-05T08:11:45;6.32;;;3.40;;
22634;SDS011;11484;50.858;4.384;2022-08-05T08:14:11;9.00;;;4.22;;
22634;SDS011;11484;50.858;4.384;2022-08-05T08:16:37;6.43;;;3.03;;
22634;SDS011;11484;50.858;4.384;2022-08-05T08:19:03;4.78;;;2.50;;
22634;SDS011;11484;50.858;4.384;2022-08-05T08:21:29;8.02;;;2.70;;
22634;SDS011;11484;50.858;4.384;2022-08-05T08:23:55;9.52;;;2.50;;
22634;SDS011;11484;50.858;4.384;2022-08-05T08:26:21;5.63;;;2.22;;
22634;SDS011;11484;50.858;4.384;2022-08-05T08:28:46;4.90;;;2.10;;
22634;SDS011;11484;50.858;4.384;2022-08-05T08:31:12;7.57;;;2.35;;
22634;SDS011;11484;50.858;4.384;2022-08-05T08:33:38;6.20;;;2.38;;
22634;SDS011;11484;50.858;4.384;2022-08-05T08:36:04;5.20;;;1.90;;
22634;SDS011;11484;50.858;4.384;2022-08-05T08:38:31;7.45;;;1.73;;
22634;SDS011;11484;50.858;4.384;2022-08-05T08:40:56;4.95;;;1.80;;
22634;SDS011;11484;50.858;4.384;2022-08-05T08:43:24;4.25;;;1.80;;
22634;SDS011;11484;50.858;4.384;2022-08-05T08:45:49;5.45;;;1.92;;
22634;SDS011;11484;50.858;4.384;2022-08-05T08:48:18;4.55;;;2.00;;
22634;SDS011;11484;50.858;4.384;2022-08-05T08:50:45;4.60;;;2.00;;
22634;SDS011;11484;50.858;4.384;2022-08-05T08:53:13;6.95;;;2.03;;
22634;SDS011;11484;50.858;4.384;2022-08-05T08:55:41;4.80;;;1.77;;
22634;SDS011;11484;50.858;4.384;2022-08-05T08:58:08;5.75;;;1.90;;
22634;SDS011;11484;50.858;4.384;2022-08-05T09:00:35;4.05;;;1.60;;
22634;SDS011;11484;50.858;4.384;2022-08-05T09:03:03;3.90;;;1.77;;
22634;SDS011;11484;50.858;4.384;2022-08-05T09:05:30;5.75;;;1.88;;
22634;SDS011;11484;50.858;4.384;2022-08-05T09:07:56;8.07;;;2.00;;
22634;SDS011;11484;50.858;4.384;2022-08-05T09:10:22;5.50;;;1.58;;
22634;SDS011;11484;50.858;4.384;2022-08-05T09:12:48;5.95;;;2.05;;
22634;SDS011;11484;50.858;4.384;2022-08-05T09:15:15;4.65;;;1.50;;
22634;SDS011;11484;50.858;4.384;2022-08-05T09:17:41;4.55;;;2.00;;
22634;SDS011;11484;50.858;4.384;2022-08-05T09:20:07;4.20;;;1.67;;
22634;SDS011;11484;50.858;4.384;2022-08-05T09:25:39;4.28;;;1.90;;
22634;SDS011;11484;50.858;4.384;2022-08-05T09:28:15;5.40;;;2.47;;
22634;SDS011;11484;50.858;4.384;2022-08-05T09:31:09;10.13;;;3.75;;
22634;SDS011;11484;50.858;4.384;2022-08-05T09:36:37;6.22;;;4.20;;
22634;SDS011;11484;50.858;4.384;2022-08-05T09:44:32;5.57;;;2.70;;
22634;SDS011;11484;50.858;4.384;2022-08-05T09:47:06;5.65;;;2.72;;
22634;SDS011;11484;50.858;4.384;2022-08-05T09:49:33;5.18;;;2.00;;
22634;SDS011;11484;50.858;4.384;2022-08-05T09:51:59;5.75;;;2.53;;
22634;SDS011;11484;50.858;4.384;2022-08-05T09:54:54;6.00;;;2.20;;
22634;SDS011;11484;50.858;4.384;2022-08-05T09:57:37;3.15;;;1.60;;
22634;SDS011;11484;50.858;4.384;2022-08-05T10:00:11;4.90;;;1.98;;
22634;SDS011;11484;50.858;4.384;2022-08-05T10:02:43;3.53;;;2.00;;
22634;SDS011;11484;50.858;4.384;2022-08-05T10:05:12;4.25;;;1.70;;
22634;SDS011;11484;50.858;4.384;2022-08-05T10:07:46;2.40;;;1.13;;
22634;SDS011;11484;50.858;4.384;2022-08-05T10:10:13;3.90;;;1.40;;
22634;SDS011;11484;50.858;4.384;2022-08-05T10:12:40;23.88;;;16.85;;
22634;SDS011;11484;50.858;4.384;2022-08-05T10:15:18;4.40;;;1.63;;
22634;SDS011;11484;50.858;4.384;2022-08-05T10:18:07;4.57;;;1.30;;
22634;SDS011;11484;50.858;4.384;2022-08-05T10:20:50;5.05;;;0.90;;
22634;SDS011;11484;50.858;4.384;2022-08-05T10:23:25;2.92;;;0.90;;
22634;SDS011;11484;50.858;4.384;2022-08-05T10:25:57;2.80;;;1.08;;
22634;SDS011;11484;50.858;4.384;2022-08-05T10:28:25;2.50;;;0.88;;
22634;SDS011;11484;50.858;4.384;2022-08-05T10:30:51;4.18;;;1.17;;
22634;SDS011;11484;50.858;4.384;2022-08-05T10:33:18;3.38;;;1.00;;
22634;SDS011;11484;50.858;4.384;2022-08-05T10:35:44;2.92;;;1.73;;
22634;SDS011;11484;50.858;4.384;2022-08-05T10:38:10;5.30;;;0.85;;
22634;SDS011;11484;50.858;4.384;2022-08-05T10:40:40;3.63;;;1.02;;
22634;SDS011;11484;50.858;4.384;2022-08-05T10:43:19;2.83;;;0.68;;
22634;SDS011;11484;50.858;4.384;2022-08-05T10:46:06;3.17;;;1.10;;
22634;SDS011;11484;50.858;4.384;2022-08-05T10:48:36;3.55;;;1.10;;
22634;SDS011;11484;50.858;4.384;2022-08-05T10:53:36;2.70;;;0.80;;
22634;SDS011;11484;50.858;4.384;2022-08-05T10:56:04;2.58;;;0.85;;
22634;SDS011;11484;50.858;4.384;2022-08-05T10:58:35;3.80;;;1.15;;
22634;SDS011;11484;50.858;4.384;2022-08-05T11:01:11;5.95;;;1.45;;
22634;SDS011;11484;50.858;4.384;2022-08-05T11:03:57;3.97;;;1.20;;
22634;SDS011;11484;50.858;4.384;2022-08-05T11:06:33;3.17;;;1.30;;
22634;SDS011;11484;50.858;4.384;2022-08-05T11:11:36;2.70;;;1.30;;
22634;SDS011;11484;50.858;4.384;2022-08-05T11:14:04;2.63;;;1.02;;
22634;SDS011;11484;50.858;4.384;2022-08-05T11:16:30;2.40;;;1.05;;
22634;SDS011;11484;50.858;4.384;2022-08-05T11:21:51;2.90;;;0.80;;
22634;SDS011;11484;50.858;4.384;2022-08-05T11:24:17;2.90;;;1.10;;
22634;SDS011;11484;50.858;4.384;2022-08-05T11:26:45;5.07;;;1.90;;
22634;SDS011;11484;50.858;4.384;2022-08-05T11:29:34;4.50;;;1.00;;
22634;SDS011;11484;50.858;4.384;2022-08-05T11:32:21;5.63;;;1.30;;
22634;SDS011;11484;50.858;4.384;2022-08-05T11:34:53;4.43;;;1.58;;
22634;SDS011;11484;50.858;4.384;2022-08-05T11:40:04;5.10;;;1.05;;
22634;SDS011;11484;50.858;4.384;2022-08-05T11:42:30;4.60;;;1.27;;
22634;SDS011;11484;50.858;4.384;2022-08-05T11:45:02;4.15;;;0.80;;
22634;SDS011;11484;50.858;4.384;2022-08-05T11:47:30;2.15;;;1.15;;
22634;SDS011;11484;50.858;4.384;2022-08-05T11:49:59;3.95;;;1.23;;
22634;SDS011;11484;50.858;4.384;2022-08-05T11:52:26;5.30;;;1.25;;
22634;SDS011;11484;50.858;4.384;2022-08-05T11:54:53;3.38;;;1.63;;
22634;SDS011;11484;50.858;4.384;2022-08-05T11:57:19;3.05;;;0.93;;
22634;SDS011;11484;50.858;4.384;2022-08-05T11:59:44;5.70;;;1.13;;
22634;SDS011;11484;50.858;4.384;2022-08-05T12:02:10;4.53;;;0.70;;
22634;SDS011;11484;50.858;4.384;2022-08-05T12:04:37;5.28;;;1.10;;
22634;SDS011;11484;50.858;4.384;2022-08-05T12:07:08;3.38;;;1.00;;
22634;SDS011;11484;50.858;4.384;2022-08-05T12:09:40;2.35;;;0.80;;
22634;SDS011;11484;50.858;4.384;2022-08-05T12:12:08;4.53;;;1.23;;
22634;SDS011;11484;50.858;4.384;2022-08-05T12:14:35;9.55;;;1.50;;
22634;SDS011;11484;50.858;4.384;2022-08-05T12:17:09;5.28;;;1.10;;
22634;SDS011;11484;50.858;4.384;2022-08-05T12:19:44;3.70;;;0.95;;
22634;SDS011;11484;50.858;4.384;2022-08-05T12:24:45;2.60;;;0.80;;
22634;SDS011;11484;50.858;4.384;2022-08-05T12:27:23;2.28;;;1.10;;
22634;SDS011;11484;50.858;4.384;2022-08-05T12:30:00;2.55;;;1.02;;
22634;SDS011;11484;50.858;4.384;2022-08-05T12:32:26;3.03;;;0.93;;
22634;SDS011;11484;50.858;4.384;2022-08-05T12:34:52;4.00;;;0.90;;
22634;SDS011;11484;50.858;4.384;2022-08-05T12:37:18;3.25;;;0.70;;
22634;SDS011;11484;50.858;4.384;2022-08-05T12:39:44;4.40;;;1.00;;
22634;SDS011;11484;50.858;4.384;2022-08-05T12:42:11;3.85;;;1.00;;
22634;SDS011;11484;50.858;4.384;2022-08-05T12:44:42;4.38;;;0.90;;
22634;SDS011;11484;50.858;4.384;2022-08-05T12:47:08;2.22;;;0.70;;
22634;SDS011;11484;50.858;4.384;2022-08-05T12:49:42;2.15;;;0.80;;
22634;SDS011;11484;50.858;4.384;2022-08-05T12:52:10;3.25;;;0.75;;
22634;SDS011;11484;50.858;4.384;2022-08-05T12:54:41;2.65;;;0.80;;
22634;SDS011;11484;50.858;4.384;2022-08-05T12:57:08;2.88;;;0.80;;
22634;SDS011;11484;50.858;4.384;2022-08-05T12:59:42;4.35;;;1.35;;
22634;SDS011;11484;50.858;4.384;2022-08-05T13:02:17;5.25;;;0.77;;
22634;SDS011;11484;50.858;4.384;2022-08-05T13:04:48;0.93;;;0.43;;
22634;SDS011;11484;50.858;4.384;2022-08-05T13:07:16;2.00;;;0.70;;
22634;SDS011;11484;50.858;4.384;2022-08-05T13:09:48;3.30;;;0.60;;
22634;SDS011;11484;50.858;4.384;2022-08-05T13:12:23;2.00;;;0.60;;
22634;SDS011;11484;50.858;4.384;2022-08-05T13:14:57;4.43;;;0.70;;
22634;SDS011;11484;50.858;4.384;2022-08-05T13:17:26;2.83;;;0.70;;
22634;SDS011;11484;50.858;4.384;2022-08-05T13:19:57;2.40;;;0.50;;
22634;SDS011;11484;50.858;4.384;2022-08-05T13:22:24;3.85;;;0.77;;
22634;SDS011;11484;50.858;4.384;2022-08-05T13:24:50;0.98;;;0.50;;
22634;SDS011;11484;50.858;4.384;2022-08-05T13:27:26;4.88;;;0.80;;
22634;SDS011;11484;50.858;4.384;2022-08-05T13:29:53;1.23;;;0.45;;
22634;SDS011;11484;50.858;4.384;2022-08-05T13:32:19;2.72;;;0.57;;
22634;SDS011;11484;50.858;4.384;2022-08-05T13:34:45;1.33;;;0.45;;
22634;SDS011;11484;50.858;4.384;2022-08-05T13:37:16;5.88;;;0.98;;
22634;SDS011;11484;50.858;4.384;2022-08-05T13:39:42;1.55;;;0.60;;
22634;SDS011;11484;50.858;4.384;2022-08-05T13:42:08;2.97;;;0.50;;
22634;SDS011;11484;50.858;4.384;2022-08-05T13:44:34;2.08;;;0.60;;
22634;SDS011;11484;50.858;4.384;2022-08-05T13:47:00;4.20;;;0.70;;
22634;SDS011;11484;50.858;4.384;2022-08-05T13:49:27;1.77;;;0.60;;
22634;SDS011;11484;50.858;4.384;2022-08-05T13:51:53;2.33;;;0.60;;
22634;SDS011;11484;50.858;4.384;2022-08-05T13:54:19;3.10;;;0.75;;
22634;SDS011;11484;50.858;4.384;2022-08-05T13:56:45;2.65;;;0.63;;
22634;SDS011;11484;50.858;4.384;2022-08-05T13:59:11;6.10;;;1.00;;
22634;SDS011;11484;50.858;4.384;2022-08-05T14:01:37;1.67;;;0.68;;
22634;SDS011;11484;50.858;4.384;2022-08-05T14:04:03;2.75;;;0.85;;
22634;SDS011;11484;50.858;4.384;2022-08-05T14:06:48;2.03;;;0.60;;
22634;SDS011;11484;50.858;4.384;2022-08-05T14:09:13;4.50;;;1.00;;
22634;SDS011;11484;50.858;4.384;2022-08-05T14:11:39;3.42;;;0.73;;
22634;SDS011;11484;50.858;4.384;2022-08-05T14:14:05;4.43;;;0.73;;
22634;SDS011;11484;50.858;4.384;2022-08-05T14:16:31;3.55;;;0.60;;
22634;SDS011;11484;50.858;4.384;2022-08-05T14:18:57;1.92;;;0.68;;
22634;SDS011;11484;50.858;4.384;2022-08-05T14:21:23;3.40;;;0.57;;
22634;SDS011;11484;50.858;4.384;2022-08-05T14:23:49;2.40;;;0.88;;
22634;SDS011;11484;50.858;4.384;2022-08-05T14:26:14;3.38;;;0.70;;
22634;SDS011;11484;50.858;4.384;2022-08-05T14:28:40;1.73;;;0.70;;
22634;SDS011;11484;50.858;4.384;2022-08-05T14:31:06;3.28;;;0.70;;
22634;SDS011;11484;50.858;4.384;2022-08-05T14:33:32;5.57;;;1.83;;
22634;SDS011;11484;50.858;4.384;2022-08-05T14:35:58;1.33;;;0.50;;
22634;SDS011;11484;50.858;4.384;2022-08-05T14:38:25;3.78;;;0.65;;
22634;SDS011;11484;50.858;4.384;2022-08-05T14:40:50;3.42;;;0.60;;
22634;SDS011;11484;50.858;4.384;2022-08-05T14:43:16;1.77;;;0.50;;
22634;SDS011;11484;50.858;4.384;2022-08-05T14:45:42;1.30;;;0.47;;
22634;SDS011;11484;50.858;4.384;2022-08-05T14:48:07;2.28;;;0.77;;
22634;SDS011;11484;50.858;4.384;2022-08-05T14:50:33;2.08;;;0.77;;
22634;SDS011;11484;50.858;4.384;2022-08-05T14:52:59;2.10;;;0.60;;
22634;SDS011;11484;50.858;4.384;2022-08-05T14:55:25;2.25;;;0.70;;
22634;SDS011;11484;50.858;4.384;2022-08-05T14:57:51;3.35;;;0.60;;
22634;SDS011;11484;50.858;4.384;2022-08-05T15:00:17;6.57;;;1.08;;
22634;SDS011;11484;50.858;4.384;2022-08-05T15:02:43;1.35;;;0.65;;
22634;SDS011;11484;50.858;4.384;2022-08-05T15:05:09;1.80;;;0.60;;
22634;SDS011;11484;50.858;4.384;2022-08-05T15:07:34;2.00;;;0.50;;
22634;SDS011;11484;50.858;4.384;2022-08-05T15:10:01;5.28;;;0.80;;
22634;SDS011;11484;50.858;4.384;2022-08-05T15:12:27;2.90;;;0.45;;
22634;SDS011;11484;50.858;4.384;2022-08-05T15:14:53;4.05;;;0.80;;
22634;SDS011;11484;50.858;4.384;2022-08-05T15:17:18;1.42;;;0.60;;
22634;SDS011;11484;50.858;4.384;2022-08-05T15:19:44;3.28;;;1.20;;
22634;SDS011;11484;50.858;4.384;2022-08-05T15:22:10;1.70;;;0.70;;
22634;SDS011;11484;50.858;4.384;2022-08-05T15:24:36;3.45;;;0.80;;
22634;SDS011;11484;50.858;4.384;2022-08-05T15:27:02;4.20;;;0.68;;
22634;SDS011;11484;50.858;4.384;2022-08-05T15:29:28;2.72;;;0.63;;
22634;SDS011;11484;50.858;4.384;2022-08-05T15:31:53;2.95;;;0.60;;
22634;SDS011;11484;50.858;4.384;2022-08-05T15:34:20;3.00;;;0.60;;
22634;SDS011;11484;50.858;4.384;2022-08-05T15:36:46;4.43;;;1.27;;
22634;SDS011;11484;50.858;4.384;2022-08-05T15:39:11;3.80;;;0.80;;